sensor_id;sensor_type;location;lat;lon;timestamp;temperature;humidity
23069;DHT22;11702;50.856;4.348;2023-04-25T08:35:11;10.40;99.90
23069;DHT22;11702;50.856;4.348;2023-04-25T08:37:37;10.40;99.90
23069;DHT22;11702;50.856;4.348;2023-04-25T08:40:03;10.30;99.90
23069;DHT22;11702;50.856;4.348;2023-04-25T08:42:33;10.20;99.90
23069;DHT22;11702;50.856;4.348;2023-04-25T08:45:01;10.10;99.90
23069;DHT22;11702;50.856;4.348;2023-04-25T08:47:30;9.80;99.90
23069;DHT22;11702;50.856;4.348;2023-04-25T08:50:00;9.80;99.90
23069;DHT22;11702;50.856;4.348;2023-04-25T08:52:32;10.00;99.90
23069;DHT22;11702;50.856;4.348;2023-04-25T08:55:01;10.30;99.90
23069;DHT22;11702;50.856;4.348;2023-04-25T08:57:28;10.50;99.90
23069;DHT22;11702;50.856;4.348;2023-04-25T08:59:55;10.60;99.90
23069;DHT22;11702;50.856;4.348;2023-04-25T09:02:22;10.90;99.90
23069;DHT22;11702;50.856;4.348;2023-04-25T09:04:49;11.30;99.90
23069;DHT22;11702;50.856;4.348;2023-04-25T09:07:15;11.50;99.90
23069;DHT22;11702;50.856;4.348;2023-04-25T09:09:46;11.80;99.90
23069;DHT22;11702;50.856;4.348;2023-04-25T09:12:12;11.90;99.90
23069;DHT22;11702;50.856;4.348;2023-04-25T09:14:44;11.80;99.90
23069;DHT22;11702;50.856;4.348;2023-04-25T09:17:26;11.20;99.90
23069;DHT22;11702;50.856;4.348;2023-04-25T09:19:51;10.40;99.90
23069;DHT22;11702;50.856;4.348;2023-04-25T09:22:17;10.30;99.90
23069;DHT22;11702;50.856;4.348;2023-04-25T09:24:46;10.20;99.90
23069;DHT22;11702;50.856;4.348;2023-04-25T09:27:19;10.20;99.90
23069;DHT22;11702;50.856;4.348;2023-04-25T09:29:45;10.30;99.90
23069;DHT22;11702;50.856;4.348;2023-04-25T09:34:44;10.30;99.90
23069;DHT22;11702;50.856;4.348;2023-04-25T09:37:17;10.20;99.90
23069;DHT22;11702;50.856;4.348;2023-04-25T09:39:45;10.20;99.90
23069;DHT22;11702;50.856;4.348;2023-04-25T09:42:12;10.00;99.90
23069;DHT22;11702;50.856;4.348;2023-04-25T09:44:43;9.80;99.90
23069;DHT22;11702;50.856;4.348;2023-04-25T09:47:10;9.80;99.90
23069;DHT22;11702;50.856;4.348;2023-04-25T09:49:39;9.90;99.90
23069;DHT22;11702;50.856;4.348;2023-04-25T09:52:14;9.90;99.90
23069;DHT22;11702;50.856;4.348;2023-04-25T09:54:40;10.20;99.90
23069;DHT22;11702;50.856;4.348;2023-04-25T09:57:20;10.20;99.90
23069;DHT22;11702;50.856;4.348;2023-04-25T09:59:55;10.10;99.90
23069;DHT22;11702;50.856;4.348;2023-04-25T10:02:23;10.20;99.90
23069;DHT22;11702;50.856;4.348;2023-04-25T10:04:53;10.50;99.90
23069;DHT22;11702;50.856;4.348;2023-04-25T10:07:23;10.60;99.90
23069;DHT22;11702;50.856;4.348;2023-04-25T10:09:58;10.70;99.90
23069;DHT22;11702;50.856;4.348;2023-04-25T10:12:29;10.60;99.90
23069;DHT22;11702;50.856;4.348;2023-04-25T10:15:03;10.40;99.90
23069;DHT22;11702;50.856;4.348;2023-04-25T10:17:32;10.30;99.90
23069;DHT22;11702;50.856;4.348;2023-04-25T10:20:02;10.20;99.90
23069;DHT22;11702;50.856;4.348;2023-04-25T10:22:34;10.30;99.90
23069;DHT22;11702;50.856;4.348;2023-04-25T10:25:04;10.60;99.90
23069;DHT22;11702;50.856;4.348;2023-04-25T10:27:36;11.00;99.90
23069;DHT22;11702;50.856;4.348;2023-04-25T10:30:03;11.30;99.90
23069;DHT22;11702;50.856;4.348;2023-04-25T10:32:31;11.80;99.90
23069;DHT22;11702;50.856;4.348;2023-04-25T10:35:04;12.40;99.90
23069;DHT22;11702;50.856;4.348;2023-04-25T10:37:35;12.50;99.00
23069;DHT22;11702;50.856;4.348;2023-04-25T10:40:11;12.10;99.80
23069;DHT22;11702;50.856;4.348;2023-04-25T10:42:36;12.40;99.70
23069;DHT22;11702;50.856;4.348;2023-04-25T10:45:09;12.30;97.20
23069;DHT22;11702;50.856;4.348;2023-04-25T10:47:44;12.30;98.60
23069;DHT22;11702;50.856;4.348;2023-04-25T10:50:17;12.20;98.00
23069;DHT22;11702;50.856;4.348;2023-04-25T10:52:45;12.10;99.00
23069;DHT22;11702;50.856;4.348;2023-04-25T10:55:14;12.20;98.40
23069;DHT22;11702;50.856;4.348;2023-04-25T10:57:45;11.90;99.20
23069;DHT22;11702;50.856;4.348;2023-04-25T11:00:17;11.60;99.90
23069;DHT22;11702;50.856;4.348;2023-04-25T11:02:57;11.40;99.90
23069;DHT22;11702;50.856;4.348;2023-04-25T11:05:34;11.40;99.90
23069;DHT22;11702;50.856;4.348;2023-04-25T11:08:00;11.10;99.90
23069;DHT22;11702;50.856;4.348;2023-04-25T11:10:28;10.50;99.90
23069;DHT22;11702;50.856;4.348;2023-04-25T11:12:54;10.20;99.90
23069;DHT22;11702;50.856;4.348;2023-04-25T11:15:19;10.30;99.90
23069;DHT22;11702;50.856;4.348;2023-04-25T11:17:45;10.60;99.90
23069;DHT22;11702;50.856;4.348;2023-04-25T11:20:13;10.80;99.90
23069;DHT22;11702;50.856;4.348;2023-04-25T11:22:45;11.10;99.90
23069;DHT22;11702;50.856;4.348;2023-04-25T11:25:11;11.30;99.90
23069;DHT22;11702;50.856;4.348;2023-04-25T11:27:55;11.50;99.90
23069;DHT22;11702;50.856;4.348;2023-04-25T11:30:28;11.60;99.90
23069;DHT22;11702;50.856;4.348;2023-04-25T11:32:58;11.40;99.90
23069;DHT22;11702;50.856;4.348;2023-04-25T11:35:28;11.40;99.90
23069;DHT22;11702;50.856;4.348;2023-04-25T11:37:56;11.50;99.90
23069;DHT22;11702;50.856;4.348;2023-04-25T11:40:21;11.60;99.90
23069;DHT22;11702;50.856;4.348;2023-04-25T11:42:47;11.60;99.90
23069;DHT22;11702;50.856;4.348;2023-04-25T11:45:15;11.60;99.90
23069;DHT22;11702;50.856;4.348;2023-04-25T11:47:41;11.60;99.90
23069;DHT22;11702;50.856;4.348;2023-04-25T11:50:14;11.60;99.90
23069;DHT22;11702;50.856;4.348;2023-04-25T11:52:45;12.10;99.90
23069;DHT22;11702;50.856;4.348;2023-04-25T11:55:15;12.10;99.70
23069;DHT22;11702;50.856;4.348;2023-04-25T11:57:42;12.10;99.20
23069;DHT22;11702;50.856;4.348;2023-04-25T12:02:46;12.10;99.90
23069;DHT22;11702;50.856;4.348;2023-04-25T12:05:13;12.40;99.90
23069;DHT22;11702;50.856;4.348;2023-04-25T12:07:39;12.50;99.80
23069;DHT22;11702;50.856;4.348;2023-04-25T12:10:07;12.70;99.80
23069;DHT22;11702;50.856;4.348;2023-04-25T12:12:41;12.50;99.90
23069;DHT22;11702;50.856;4.348;2023-04-25T12:15:17;12.10;99.90
23069;DHT22;11702;50.856;4.348;2023-04-25T12:17:54;12.10;99.90
23069;DHT22;11702;50.856;4.348;2023-04-25T12:20:26;12.10;98.50
23069;DHT22;11702;50.856;4.348;2023-04-25T12:22:57;11.60;99.90
23069;DHT22;11702;50.856;4.348;2023-04-25T12:25:44;11.60;99.60
23069;DHT22;11702;50.856;4.348;2023-04-25T12:28:22;11.50;99.60
23069;DHT22;11702;50.856;4.348;2023-04-25T12:31:07;11.50;99.70
23069;DHT22;11702;50.856;4.348;2023-04-25T12:33:41;11.40;98.50
23069;DHT22;11702;50.856;4.348;2023-04-25T12:36:09;11.40;98.40
23069;DHT22;11702;50.856;4.348;2023-04-25T12:38:42;11.50;98.10
23069;DHT22;11702;50.856;4.348;2023-04-25T12:41:10;11.90;96.40
23069;DHT22;11702;50.856;4.348;2023-04-25T12:43:36;12.00;96.00
23069;DHT22;11702;50.856;4.348;2023-04-25T12:46:02;12.10;96.30
23069;DHT22;11702;50.856;4.348;2023-04-25T12:48:28;11.90;97.20
23069;DHT22;11702;50.856;4.348;2023-04-25T12:50:53;12.20;98.10
23069;DHT22;11702;50.856;4.348;2023-04-25T12:53:21;12.60;98.50
23069;DHT22;11702;50.856;4.348;2023-04-25T12:55:47;12.80;96.00
23069;DHT22;11702;50.856;4.348;2023-04-25T12:58:14;12.10;96.50
23069;DHT22;11702;50.856;4.348;2023-04-25T13:00:40;11.80;98.70
23069;DHT22;11702;50.856;4.348;2023-04-25T13:03:06;11.70;99.80
23069;DHT22;11702;50.856;4.348;2023-04-25T13:05:31;11.50;99.90
23069;DHT22;11702;50.856;4.348;2023-04-25T13:07:57;11.60;99.90
23069;DHT22;11702;50.856;4.348;2023-04-25T13:10:23;11.80;99.90
23069;DHT22;11702;50.856;4.348;2023-04-25T13:12:48;11.80;99.30
23069;DHT22;11702;50.856;4.348;2023-04-25T13:15:14;11.70;99.20
23069;DHT22;11702;50.856;4.348;2023-04-25T13:17:41;11.50;99.60
23069;DHT22;11702;50.856;4.348;2023-04-25T13:20:08;11.50;99.40
23069;DHT22;11702;50.856;4.348;2023-04-25T13:22:39;11.40;99.00
23069;DHT22;11702;50.856;4.348;2023-04-25T13:25:06;11.30;97.90
23069;DHT22;11702;50.856;4.348;2023-04-25T13:27:33;11.20;98.30
23069;DHT22;11702;50.856;4.348;2023-04-25T13:30:03;11.30;98.30
23069;DHT22;11702;50.856;4.348;2023-04-25T13:32:36;11.40;97.60
23069;DHT22;11702;50.856;4.348;2023-04-25T13:35:03;11.60;97.10
23069;DHT22;11702;50.856;4.348;2023-04-25T13:37:30;11.70;96.80
23069;DHT22;11702;50.856;4.348;2023-04-25T13:40:01;11.80;97.10
23069;DHT22;11702;50.856;4.348;2023-04-25T13:42:29;11.80;97.30
23069;DHT22;11702;50.856;4.348;2023-04-25T13:44:55;12.10;96.50
23069;DHT22;11702;50.856;4.348;2023-04-25T13:47:20;12.30;95.40
23069;DHT22;11702;50.856;4.348;2023-04-25T13:49:46;12.10;94.90
23069;DHT22;11702;50.856;4.348;2023-04-25T13:52:11;12.10;96.30
23069;DHT22;11702;50.856;4.348;2023-04-25T13:54:37;11.70;98.60
23069;DHT22;11702;50.856;4.348;2023-04-25T13:57:03;11.20;99.90
23069;DHT22;11702;50.856;4.348;2023-04-25T13:59:29;11.00;99.90
23069;DHT22;11702;50.856;4.348;2023-04-25T14:01:54;11.00;99.90
23069;DHT22;11702;50.856;4.348;2023-04-25T14:04:20;10.90;99.90
23069;DHT22;11702;50.856;4.348;2023-04-25T14:06:45;10.80;99.90
23069;DHT22;11702;50.856;4.348;2023-04-25T14:09:12;10.70;99.90
23069;DHT22;11702;50.856;4.348;2023-04-25T14:11:37;10.60;99.90
23069;DHT22;11702;50.856;4.348;2023-04-25T14:14:03;10.70;99.90
23069;DHT22;11702;50.856;4.348;2023-04-25T14:16:29;10.80;99.90
23069;DHT22;11702;50.856;4.348;2023-04-25T14:18:55;10.70;99.70
23069;DHT22;11702;50.856;4.348;2023-04-25T14:21:21;10.80;99.70
23069;DHT22;11702;50.856;4.348;2023-04-25T14:23:47;11.00;98.50
23069;DHT22;11702;50.856;4.348;2023-04-25T14:26:13;11.00;98.90
23069;DHT22;11702;50.856;4.348;2023-04-25T14:28:38;11.00;99.00
23069;DHT22;11702;50.856;4.348;2023-04-25T14:31:04;11.20;98.20
23069;DHT22;11702;50.856;4.348;2023-04-25T14:33:30;11.50;97.10
23069;DHT22;11702;50.856;4.348;2023-04-25T14:35:56;11.70;97.10
23069;DHT22;11702;50.856;4.348;2023-04-25T14:38:21;11.90;96.40
23069;DHT22;11702;50.856;4.348;2023-04-25T14:40:51;11.80;95.60
23069;DHT22;11702;50.856;4.348;2023-04-25T14:43:19;11.80;96.20
23069;DHT22;11702;50.856;4.348;2023-04-25T14:45:45;12.00;97.00
23069;DHT22;11702;50.856;4.348;2023-04-25T14:48:10;12.00;97.60
23069;DHT22;11702;50.856;4.348;2023-04-25T14:50:36;12.00;97.30
23069;DHT22;11702;50.856;4.348;2023-04-25T14:53:02;11.60;97.90
23069;DHT22;11702;50.856;4.348;2023-04-25T14:55:28;11.20;98.50
23069;DHT22;11702;50.856;4.348;2023-04-25T14:57:54;11.00;99.10
23069;DHT22;11702;50.856;4.348;2023-04-25T15:00:21;11.10;99.60
23069;DHT22;11702;50.856;4.348;2023-04-25T15:02:48;11.10;98.80
23069;DHT22;11702;50.856;4.348;2023-04-25T15:05:14;11.00;99.30
23069;DHT22;11702;50.856;4.348;2023-04-25T15:07:40;11.10;99.90
23069;DHT22;11702;50.856;4.348;2023-04-25T15:10:09;11.10;99.90
23069;DHT22;11702;50.856;4.348;2023-04-25T15:12:44;11.20;99.40
23069;DHT22;11702;50.856;4.348;2023-04-25T15:15:11;11.40;99.00
23069;DHT22;11702;50.856;4.348;2023-04-25T15:17:43;11.50;98.20
23069;DHT22;11702;50.856;4.348;2023-04-25T15:20:11;11.30;98.30
23069;DHT22;11702;50.856;4.348;2023-04-25T15:22:43;10.70;98.40
23069;DHT22;11702;50.856;4.348;2023-04-25T15:25:10;10.50;98.50
23069;DHT22;11702;50.856;4.348;2023-04-25T15:27:37;10.30;98.30
23069;DHT22;11702;50.856;4.348;2023-04-25T15:30:07;10.20;98.20
23069;DHT22;11702;50.856;4.348;2023-04-25T15:32:33;10.20;98.40
23069;DHT22;11702;50.856;4.348;2023-04-25T15:35:01;10.30;98.80
23069;DHT22;11702;50.856;4.348;2023-04-25T15:37:28;10.50;98.30
23069;DHT22;11702;50.856;4.348;2023-04-25T15:42:30;10.70;98.90
23069;DHT22;11702;50.856;4.348;2023-04-25T15:44:55;10.60;99.60
23069;DHT22;11702;50.856;4.348;2023-04-25T15:47:21;10.60;99.90
23069;DHT22;11702;50.856;4.348;2023-04-25T15:49:47;10.60;99.90
23069;DHT22;11702;50.856;4.348;2023-04-25T15:52:12;10.70;99.90
23069;DHT22;11702;50.856;4.348;2023-04-25T15:54:38;10.70;99.90
23069;DHT22;11702;50.856;4.348;2023-04-25T15:57:04;10.60;99.90
23069;DHT22;11702;50.856;4.348;2023-04-25T15:59:29;10.60;99.90
23069;DHT22;11702;50.856;4.348;2023-04-25T16:01:55;10.60;99.90
23069;DHT22;11702;50.856;4.348;2023-04-25T16:04:21;10.50;99.90
23069;DHT22;11702;50.856;4.348;2023-04-25T16:06:49;10.50;99.90
23069;DHT22;11702;50.856;4.348;2023-04-25T16:09:15;10.60;99.90
23069;DHT22;11702;50.856;4.348;2023-04-25T16:11:41;10.50;99.90
23069;DHT22;11702;50.856;4.348;2023-04-25T16:14:07;10.40;99.90
23069;DHT22;11702;50.856;4.348;2023-04-25T16:16:33;10.40;99.90
23069;DHT22;11702;50.856;4.348;2023-04-25T16:18:58;10.30;99.90
23069;DHT22;11702;50.856;4.348;2023-04-25T16:21:24;10.30;99.90
23069;DHT22;11702;50.856;4.348;2023-04-25T16:23:51;10.40;99.80
23069;DHT22;11702;50.856;4.348;2023-04-25T16:26:17;10.40;99.70
23069;DHT22;11702;50.856;4.348;2023-04-25T16:28:42;10.30;99.80
23069;DHT22;11702;50.856;4.348;2023-04-25T16:31:08;10.30;99.80
23069;DHT22;11702;50.856;4.348;2023-04-25T16:33:34;10.30;99.90
23069;DHT22;11702;50.856;4.348;2023-04-25T16:35:59;10.30;99.90
23069;DHT22;11702;50.856;4.348;2023-04-25T16:38:25;10.60;99.90
23069;DHT22;11702;50.856;4.348;2023-04-25T16:40:51;10.70;99.90
23069;DHT22;11702;50.856;4.348;2023-04-25T16:43:16;10.90;99.10
23069;DHT22;11702;50.856;4.348;2023-04-25T16:45:44;11.10;98.30
23069;DHT22;11702;50.856;4.348;2023-04-25T16:48:10;10.90;98.60
23069;DHT22;11702;50.856;4.348;2023-04-25T16:50:36;10.90;97.90
23069;DHT22;11702;50.856;4.348;2023-04-25T16:53:01;10.60;98.20
23069;DHT22;11702;50.856;4.348;2023-04-25T16:55:27;10.50;98.20
23069;DHT22;11702;50.856;4.348;2023-04-25T16:57:52;10.60;98.60
23069;DHT22;11702;50.856;4.348;2023-04-25T17:00:18;10.60;99.80
23069;DHT22;11702;50.856;4.348;2023-04-25T17:02:44;10.40;99.90
23069;DHT22;11702;50.856;4.348;2023-04-25T17:05:10;10.40;99.90
23069;DHT22;11702;50.856;4.348;2023-04-25T17:07:36;10.40;99.90
23069;DHT22;11702;50.856;4.348;2023-04-25T17:10:02;10.40;99.90
23069;DHT22;11702;50.856;4.348;2023-04-25T17:12:28;10.50;99.90
23069;DHT22;11702;50.856;4.348;2023-04-25T17:14:53;10.50;99.90
23069;DHT22;11702;50.856;4.348;2023-04-25T17:17:19;10.40;99.90
23069;DHT22;11702;50.856;4.348;2023-04-25T17:19:45;10.20;99.90
23069;DHT22;11702;50.856;4.348;2023-04-25T17:22:11;10.20;99.90
23069;DHT22;11702;50.856;4.348;2023-04-25T17:24:37;10.10;99.90
23069;DHT22;11702;50.856;4.348;2023-04-25T17:27:05;9.90;99.90
23069;DHT22;11702;50.856;4.348;2023-04-25T17:29:30;9.90;99.90
23069;DHT22;11702;50.856;4.348;2023-04-25T17:31:57;9.80;99.90
23069;DHT22;11702;50.856;4.348;2023-04-25T17:34:23;9.70;99.90
23069;DHT22;11702;50.856;4.348;2023-04-25T17:36:49;9.60;99.90
23069;DHT22;11702;50.856;4.348;2023-04-25T17:39:15;9.60;99.90
23069;DHT22;11702;50.856;4.348;2023-04-25T17:41:42;9.50;99.90
23069;DHT22;11702;50.856;4.348;2023-04-25T17:44:08;9.40;99.90
23069;DHT22;11702;50.856;4.348;2023-04-25T17:46:34;9.40;99.90
23069;DHT22;11702;50.856;4.348;2023-04-25T17:49:00;9.50;99.90
23069;DHT22;11702;50.856;4.348;2023-04-25T17:51:26;9.40;99.90
23069;DHT22;11702;50.856;4.348;2023-04-25T17:53:52;9.30;99.90
23069;DHT22;11702;50.856;4.348;2023-04-25T17:56:18;9.20;99.90
23069;DHT22;11702;50.856;4.348;2023-04-25T17:58:43;9.20;99.90
23069;DHT22;11702;50.856;4.348;2023-04-25T18:01:09;9.10;99.90
23069;DHT22;11702;50.856;4.348;2023-04-25T18:03:35;9.00;99.90
23069;DHT22;11702;50.856;4.348;2023-04-25T18:06:02;9.00;99.90
23069;DHT22;11702;50.856;4.348;2023-04-25T18:08:29;9.00;99.90
23069;DHT22;11702;50.856;4.348;2023-04-25T18:10:55;8.90;99.90
23069;DHT22;11702;50.856;4.348;2023-04-25T18:13:21;8.90;99.90
23069;DHT22;11702;50.856;4.348;2023-04-25T18:15:47;8.90;99.90
23069;DHT22;11702;50.856;4.348;2023-04-25T18:18:12;8.70;99.90
23069;DHT22;11702;50.856;4.348;2023-04-25T18:20:45;8.70;99.90
23069;DHT22;11702;50.856;4.348;2023-04-25T18:23:11;8.70;99.90
23069;DHT22;11702;50.856;4.348;2023-04-25T18:25:38;8.60;99.90
23069;DHT22;11702;50.856;4.348;2023-04-25T18:28:04;8.60;99.90
23069;DHT22;11702;50.856;4.348;2023-04-25T18:30:29;8.50;99.90
23069;DHT22;11702;50.856;4.348;2023-04-25T18:32:55;8.50;99.90
23069;DHT22;11702;50.856;4.348;2023-04-25T18:35:21;8.60;99.90
23069;DHT22;11702;50.856;4.348;2023-04-25T18:37:47;8.50;99.90
23069;DHT22;11702;50.856;4.348;2023-04-25T18:40:16;8.50;99.90
23069;DHT22;11702;50.856;4.348;2023-04-25T18:42:47;8.50;99.90
23069;DHT22;11702;50.856;4.348;2023-04-25T18:45:13;8.50;99.90
23069;DHT22;11702;50.856;4.348;2023-04-25T18:47:39;8.30;99.90
23069;DHT22;11702;50.856;4.348;2023-04-25T18:50:05;8.30;99.90
23069;DHT22;11702;50.856;4.348;2023-04-25T18:52:33;8.10;99.90
23069;DHT22;11702;50.856;4.348;2023-04-25T18:54:59;8.00;99.90
23069;DHT22;11702;50.856;4.348;2023-04-25T18:57:28;8.00;99.90
23069;DHT22;11702;50.856;4.348;2023-04-25T18:59:53;7.80;99.90
23069;DHT22;11702;50.856;4.348;2023-04-25T19:02:25;7.80;99.90
23069;DHT22;11702;50.856;4.348;2023-04-25T19:04:50;7.70;99.90
23069;DHT22;11702;50.856;4.348;2023-04-25T19:07:16;7.60;99.90
23069;DHT22;11702;50.856;4.348;2023-04-25T19:09:42;7.60;99.90
23069;DHT22;11702;50.856;4.348;2023-04-25T19:12:08;7.60;99.90
23069;DHT22;11702;50.856;4.348;2023-04-25T19:14:34;7.50;99.90
23069;DHT22;11702;50.856;4.348;2023-04-25T19:17:06;7.60;99.90
23069;DHT22;11702;50.856;4.348;2023-04-25T19:19:32;7.50;99.90
23069;DHT22;11702;50.856;4.348;2023-04-25T19:21:57;7.50;99.90
23069;DHT22;11702;50.856;4.348;2023-04-25T19:24:23;7.50;99.90
23069;DHT22;11702;50.856;4.348;2023-04-25T19:26:49;7.50;99.90
23069;DHT22;11702;50.856;4.348;2023-04-25T19:29:15;7.50;99.90
23069;DHT22;11702;50.856;4.348;2023-04-25T19:31:42;7.50;99.90
23069;DHT22;11702;50.856;4.348;2023-04-25T19:34:12;7.50;99.90
23069;DHT22;11702;50.856;4.348;2023-04-25T19:36:39;7.50;99.90
23069;DHT22;11702;50.856;4.348;2023-04-25T19:39:05;7.50;99.90
23069;DHT22;11702;50.856;4.348;2023-04-25T19:41:36;7.40;99.90
23069;DHT22;11702;50.856;4.348;2023-04-25T19:44:03;7.50;99.90
23069;DHT22;11702;50.856;4.348;2023-04-25T19:46:31;7.50;99.90
23069;DHT22;11702;50.856;4.348;2023-04-25T19:49:00;7.50;99.90
23069;DHT22;11702;50.856;4.348;2023-04-25T19:51:26;7.40;99.90
23069;DHT22;11702;50.856;4.348;2023-04-25T19:53:59;7.40;99.90
23069;DHT22;11702;50.856;4.348;2023-04-25T19:56:26;7.20;99.90
23069;DHT22;11702;50.856;4.348;2023-04-25T19:58:54;7.30;99.90
23069;DHT22;11702;50.856;4.348;2023-04-25T20:01:23;7.20;99.90
23069;DHT22;11702;50.856;4.348;2023-04-25T20:03:51;7.30;99.90
23069;DHT22;11702;50.856;4.348;2023-04-25T20:06:17;7.20;99.90
23069;DHT22;11702;50.856;4.348;2023-04-25T20:08:43;7.10;99.90
23069;DHT22;11702;50.856;4.348;2023-04-25T20:11:12;7.00;99.90
23069;DHT22;11702;50.856;4.348;2023-04-25T20:13:43;7.00;99.90
23069;DHT22;11702;50.856;4.348;2023-04-25T20:16:09;7.00;99.90
23069;DHT22;11702;50.856;4.348;2023-04-25T20:18:35;7.00;99.90
23069;DHT22;11702;50.856;4.348;2023-04-25T20:21:00;7.00;99.90
23069;DHT22;11702;50.856;4.348;2023-04-25T20:23:26;7.00;99.90
23069;DHT22;11702;50.856;4.348;2023-04-25T20:25:52;7.00;99.90
23069;DHT22;11702;50.856;4.348;2023-04-25T20:28:18;6.90;99.90
23069;DHT22;11702;50.856;4.348;2023-04-25T20:30:49;6.90;99.90
23069;DHT22;11702;50.856;4.348;2023-04-25T20:33:14;6.80;99.90
23069;DHT22;11702;50.856;4.348;2023-04-25T20:35:40;6.80;99.90
23069;DHT22;11702;50.856;4.348;2023-04-25T20:38:08;6.80;99.90
23069;DHT22;11702;50.856;4.348;2023-04-25T20:40:36;6.70;99.90
23069;DHT22;11702;50.856;4.348;2023-04-25T20:43:02;6.70;99.90
23069;DHT22;11702;50.856;4.348;2023-04-25T20:45:30;6.70;99.90
23069;DHT22;11702;50.856;4.348;2023-04-25T20:48:00;6.70;99.90
23069;DHT22;11702;50.856;4.348;2023-04-25T20:50:29;6.80;99.90
23069;DHT22;11702;50.856;4.348;2023-04-25T20:52:56;6.70;99.90
23069;DHT22;11702;50.856;4.348;2023-04-25T20:55:22;6.70;99.90
23069;DHT22;11702;50.856;4.348;2023-04-25T20:57:48;6.60;99.90
23069;DHT22;11702;50.856;4.348;2023-04-25T21:00:17;6.60;99.90
23069;DHT22;11702;50.856;4.348;2023-04-25T21:02:51;6.60;99.90
23069;DHT22;11702;50.856;4.348;2023-04-25T21:05:18;6.60;99.90
23069;DHT22;11702;50.856;4.348;2023-04-25T21:07:50;6.50;99.90
23069;DHT22;11702;50.856;4.348;2023-04-25T21:10:19;6.50;99.90
23069;DHT22;11702;50.856;4.348;2023-04-25T21:12:48;6.50;99.90
23069;DHT22;11702;50.856;4.348;2023-04-25T21:15:16;6.40;99.90
23069;DHT22;11702;50.856;4.348;2023-04-25T21:17:45;6.50;99.90
23069;DHT22;11702;50.856;4.348;2023-04-25T21:20:20;6.40;99.90
23069;DHT22;11702;50.856;4.348;2023-04-25T21:22:47;6.40;99.90
23069;DHT22;11702;50.856;4.348;2023-04-25T21:25:20;6.40;99.90
23069;DHT22;11702;50.856;4.348;2023-04-25T21:27:50;6.40;99.90
23069;DHT22;11702;50.856;4.348;2023-04-25T21:30:20;6.40;99.90
23069;DHT22;11702;50.856;4.348;2023-04-25T21:32:47;6.40;99.90
23069;DHT22;11702;50.856;4.348;2023-04-25T21:35:15;6.40;99.90
23069;DHT22;11702;50.856;4.348;2023-04-25T21:37:41;6.40;99.90
23069;DHT22;11702;50.856;4.348;2023-04-25T21:40:11;6.50;99.90
23069;DHT22;11702;50.856;4.348;2023-04-25T21:42:40;6.40;99.90
23069;DHT22;11702;50.856;4.348;2023-04-25T21:45:07;6.40;99.90
23069;DHT22;11702;50.856;4.348;2023-04-25T21:47:34;6.40;99.90
23069;DHT22;11702;50.856;4.348;2023-04-25T21:50:03;6.40;99.90
23069;DHT22;11702;50.856;4.348;2023-04-25T21:52:29;6.40;99.90
23069;DHT22;11702;50.856;4.348;2023-04-25T21:54:55;6.40;99.90
23069;DHT22;11702;50.856;4.348;2023-04-25T21:57:27;6.40;99.90
23069;DHT22;11702;50.856;4.348;2023-04-25T21:59:52;6.30;99.90
23069;DHT22;11702;50.856;4.348;2023-04-25T22:02:18;6.30;99.90
23069;DHT22;11702;50.856;4.348;2023-04-25T22:04:44;6.30;99.90
23069;DHT22;11702;50.856;4.348;2023-04-25T22:07:15;6.20;99.90
23069;DHT22;11702;50.856;4.348;2023-04-25T22:09:44;6.20;99.90
23069;DHT22;11702;50.856;4.348;2023-04-25T22:12:09;6.20;99.90
23069;DHT22;11702;50.856;4.348;2023-04-25T22:14:36;6.10;99.90
23069;DHT22;11702;50.856;4.348;2023-04-25T22:17:08;6.10;99.90
23069;DHT22;11702;50.856;4.348;2023-04-25T22:19:34;6.00;99.90
23069;DHT22;11702;50.856;4.348;2023-04-25T22:22:01;6.00;99.90
23069;DHT22;11702;50.856;4.348;2023-04-25T22:24:26;5.90;99.90
23069;DHT22;11702;50.856;4.348;2023-04-25T22:26:56;6.00;99.90
23069;DHT22;11702;50.856;4.348;2023-04-25T22:29:23;5.80;99.90
23069;DHT22;11702;50.856;4.348;2023-04-25T22:31:49;5.70;99.90
23069;DHT22;11702;50.856;4.348;2023-04-25T22:34:14;5.60;99.90
23069;DHT22;11702;50.856;4.348;2023-04-25T22:36:40;5.70;99.90
23069;DHT22;11702;50.856;4.348;2023-04-25T22:39:06;5.60;99.90
23069;DHT22;11702;50.856;4.348;2023-04-25T22:41:33;5.60;99.90
23069;DHT22;11702;50.856;4.348;2023-04-25T22:43:58;5.70;99.90
23069;DHT22;11702;50.856;4.348;2023-04-25T22:46:24;5.70;99.90
23069;DHT22;11702;50.856;4.348;2023-04-25T22:48:49;5.70;99.90
23069;DHT22;11702;50.856;4.348;2023-04-25T22:51:15;5.70;99.90
23069;DHT22;11702;50.856;4.348;2023-04-25T22:53:41;5.70;99.90
23069;DHT22;11702;50.856;4.348;2023-04-25T22:56:07;5.80;99.90
23069;DHT22;11702;50.856;4.348;2023-04-25T22:58:34;5.80;99.90
23069;DHT22;11702;50.856;4.348;2023-04-25T23:01:01;5.80;99.90
23069;DHT22;11702;50.856;4.348;2023-04-25T23:03:28;5.80;99.90
23069;DHT22;11702;50.856;4.348;2023-04-25T23:05:53;5.70;99.90
23069;DHT22;11702;50.856;4.348;2023-04-25T23:08:19;5.60;99.90
23069;DHT22;11702;50.856;4.348;2023-04-25T23:10:45;5.60;99.90
23069;DHT22;11702;50.856;4.348;2023-04-25T23:13:11;5.60;99.90
23069;DHT22;11702;50.856;4.348;2023-04-25T23:15:37;5.50;99.90
23069;DHT22;11702;50.856;4.348;2023-04-25T23:18:03;5.60;99.90
